Time;durP1;ratioP1;P1;durP2;ratioP2;P2;SDS_P1;SDS_P2;PMS_P1;PMS_P2;Temp;Humidity;BMP_temperature;BMP_pressure;BME280_temperature;BME280_humidity;BME280_pressure;Samples;Min_cycle;Max_cycle;Signal;HPM_P1;HPM_P2
2022/08/02 00:00:46;;;;;;;;;2.00;2.00;;;;;24.46;48.22;101145.41;4997748;28;46034;-84
2022/08/02 00:03:11;;;;;;;;;3.50;3.00;;;;;24.45;49.22;101142.94;5014709;28;46606;-84
2022/08/02 00:05:37;;;;;;;;;4.50;3.00;;;;;24.37;48.66;101135.00;5014080;28;46610;-84
2022/08/02 00:08:02;;;;;;;;;4.00;4.00;;;;;24.35;48.96;101143.22;5014489;28;45507;-83
2022/08/02 00:10:28;;;;;;;;;3.75;3.75;;;;;24.31;48.93;101130.38;4998910;28;45988;-84
2022/08/02 00:12:53;;;;;;;;;3.00;3.00;;;;;24.28;48.98;101136.13;5002435;28;47723;-83
2022/08/02 00:15:19;;;;;;;;;3.00;3.00;;;;;24.35;49.15;101147.72;5020654;28;45650;-83
2022/08/02 00:17:44;;;;;;;;;2.75;2.75;;;;;24.28;49.25;101144.97;5019588;28;45516;-83
2022/08/02 00:23:32;;;;;;;;;3.00;3.00;;;;;24.31;49.32;101138.41;5019640;28;46068;-84
2022/08/02 00:25:57;;;;;;;;;3.50;3.50;;;;;24.27;49.34;101140.63;5002741;28;46481;-84
2022/08/02 00:28:24;;;;;;;;;3.00;3.00;;;;;24.22;49.02;101130.47;5002598;28;45599;-84
2022/08/02 00:30:50;;;;;;;;;2.00;2.00;;;;;24.25;49.42;101137.31;4999307;28;45622;-84
2022/08/02 00:33:15;;;;;;;;;2.50;2.50;;;;;24.16;48.85;101120.47;5018575;28;46796;-84
2022/08/02 00:39:02;;;;;;;;;3.00;3.00;;;;;24.15;49.25;101126.00;5020832;28;45718;-84
2022/08/02 00:41:28;;;;;;;;;3.00;2.50;;;;;24.12;49.79;101127.22;5022743;28;45870;-84
2022/08/02 00:43:53;;;;;;;;;4.25;4.00;;;;;24.08;49.71;101125.91;5022513;28;45574;-84
2022/08/02 00:46:20;;;;;;;;;2.75;2.25;;;;;24.08;49.33;101135.78;5019838;28;45699;-84
2022/08/02 00:48:46;;;;;;;;;2.75;2.75;;;;;23.99;49.67;101115.47;5000447;28;45698;-84
2022/08/02 00:51:12;;;;;;;;;2.00;1.75;;;;;24.05;49.80;101131.66;5001957;28;45703;-84
2022/08/02 00:53:38;;;;;;;;;3.00;3.00;;;;;24.00;49.06;101128.69;5022365;28;45677;-83
2022/08/02 00:56:04;;;;;;;;;3.75;3.00;;;;;23.99;49.97;101137.72;5000938;28;47251;-83
2022/08/02 00:58:29;;;;;;;;;3.00;3.00;;;;;23.99;49.24;101128.88;5018090;28;45654;-83
2022/08/02 01:00:56;;;;;;;;;3.00;2.00;;;;;23.96;49.65;101131.91;4999637;28;45685;-84
2022/08/02 01:03:23;;;;;;;;;3.00;3.00;;;;;23.93;49.73;101140.31;5000397;28;48633;-83
2022/08/02 01:09:10;;;;;;;;;2.00;2.00;;;;;23.87;49.46;101139.19;5022573;28;45600;-84
2022/08/02 01:11:36;;;;;;;;;3.00;2.25;;;;;23.87;49.70;101141.84;5020866;28;45564;-83
2022/08/02 01:14:05;;;;;;;;;2.00;2.00;;;;;23.85;49.36;101146.59;5019259;28;46454;-84
2022/08/02 01:16:35;;;;;;;;;2.00;2.00;;;;;23.80;49.77;101138.28;5020966;28;45960;-84
2022/08/02 01:19:27;;;;;;;;;2.00;2.00;;;;;23.74;49.90;101147.03;5020475;28;45629;-83
2022/08/02 01:22:11;;;;;;;;;2.00;1.75;;;;;23.60;49.30;101127.22;5020048;28;45532;-84
2022/08/02 01:25:01;;;;;;;;;2.50;1.75;;;;;23.60;49.84;101126.41;5018468;28;45720;-83
2022/08/02 01:27:49;;;;;;;;;2.00;2.00;;;;;23.58;50.25;101139.13;5003133;28;48430;-84
2022/08/02 01:30:16;;;;;;;;;3.75;2.75;;;;;23.58;49.91;101131.94;5018986;28;45530;-83
2022/08/02 01:32:49;;;;;;;;;2.50;2.00;;;;;23.62;49.91;101146.63;5015473;28;45711;-83
2022/08/02 01:35:22;;;;;;;;;2.00;2.00;;;;;23.59;49.31;101135.47;4997215;28;47381;-84
2022/08/02 01:37:53;;;;;;;;;2.00;2.00;;;;;23.62;49.36;101149.28;4997159;28;48721;-83
2022/08/02 01:40:30;;;;;;;;;2.50;2.50;;;;;23.59;49.19;101148.84;5015688;28;45736;-84
2022/08/02 01:42:57;;;;;;;;;2.50;2.50;;;;;23.58;49.96;101150.69;4997079;28;45480;-83
2022/08/02 01:45:25;;;;;;;;;3.00;2.00;;;;;23.60;49.74;101148.63;5015407;28;45488;-84
2022/08/02 01:47:52;;;;;;;;;1.75;1.75;;;;;23.56;50.03;101143.81;4997520;28;46944;-84
2022/08/02 01:50:25;;;;;;;;;2.00;2.00;;;;;23.54;50.15;101141.31;5015114;28;45723;-83
2022/08/02 01:52:54;;;;;;;;;2.50;2.50;;;;;23.53;49.95;101141.53;5015584;28;45738;-84
2022/08/02 01:55:30;;;;;;;;;2.00;2.00;;;;;23.57;49.37;101146.34;4997326;28;48660;-84
2022/08/02 01:58:02;;;;;;;;;2.50;2.50;;;;;23.55;50.19;101147.50;4997259;28;47235;-83
2022/08/02 02:00:32;;;;;;;;;2.00;2.00;;;;;23.54;50.14;101140.50;5016888;28;45725;-83
2022/08/02 02:02:59;;;;;;;;;2.00;2.00;;;;;23.44;49.93;101128.16;5015411;28;45813;-84
2022/08/02 02:05:28;;;;;;;;;3.00;2.00;;;;;23.52;49.51;101135.34;5014853;28;46331;-84
2022/08/02 02:07:57;;;;;;;;;2.00;2.00;;;;;23.55;49.69;101145.66;5015007;28;45622;-84
2022/08/02 02:10:30;;;;;;;;;2.75;2.00;;;;;23.55;49.41;101136.81;5015440;28;45711;-84
2022/08/02 02:12:59;;;;;;;;;2.00;2.00;;;;;23.47;49.26;101128.88;5015687;28;45778;-84
2022/08/02 02:15:25;;;;;;;;;3.25;2.75;;;;;23.53;49.42;101137.00;4997098;28;48704;-84
2022/08/02 02:17:53;;;;;;;;;3.00;2.00;;;;;23.52;49.85;101139.84;5015776;28;45993;-84
2022/08/02 02:20:20;;;;;;;;;1.75;1.50;;;;;23.50;49.50;101129.31;5015078;28;45586;-84
2022/08/02 02:22:46;;;;;;;;;3.75;3.00;;;;;23.47;49.69;101124.34;5014775;28;45591;-83
2022/08/02 02:25:16;;;;;;;;;1.00;1.00;;;;;23.32;49.59;101097.50;5014777;28;46928;-83
2022/08/02 02:27:48;;;;;;;;;2.75;1.75;;;;;23.31;49.10;101100.38;4996750;28;47293;-84
2022/08/02 02:30:15;;;;;;;;;1.75;1.75;;;;;23.38;48.88;101112.84;4996662;28;45709;-84
2022/08/02 02:32:44;;;;;;;;;2.75;2.00;;;;;23.37;49.47;101119.19;4996573;28;45894;-84
2022/08/02 02:35:12;;;;;;;;;1.00;1.00;;;;;23.34;49.07;101110.72;4996689;28;48509;-84
2022/08/02 02:37:39;;;;;;;;;2.50;2.00;;;;;23.35;48.97;101123.91;4996587;28;47254;-84
2022/08/02 02:40:07;;;;;;;;;3.00;2.50;;;;;23.33;49.44;101119.72;4996820;28;45601;-84
2022/08/02 02:42:34;;;;;;;;;1.00;1.00;;;;;23.28;49.24;101116.75;5014494;28;45699;-84
2022/08/02 02:45:02;;;;;;;;;2.50;2.00;;;;;23.28;49.23;101117.59;4996676;28;47554;-84
2022/08/02 02:47:29;;;;;;;;;3.25;2.50;;;;;23.25;49.12;101120.66;5014525;28;45563;-84
2022/08/02 02:49:56;;;;;;;;;4.00;2.75;;;;;23.18;49.17;101109.00;4996411;28;45750;-84
2022/08/02 02:52:23;;;;;;;;;2.00;2.00;;;;;23.18;49.09;101113.50;4997006;28;45949;-84
2022/08/02 02:54:50;;;;;;;;;3.00;3.00;;;;;23.13;49.13;101114.03;5017086;28;46739;-84
2022/08/02 02:57:16;;;;;;;;;3.00;2.00;;;;;23.08;49.42;101096.88;5018644;28;45577;-83
2022/08/02 02:59:42;;;;;;;;;1.00;1.00;;;;;23.12;49.57;101119.56;5003629;28;45526;-84
2022/08/02 03:02:09;;;;;;;;;2.00;2.00;;;;;23.10;49.14;101114.41;5021571;28;45758;-84
2022/08/02 03:04:35;;;;;;;;;3.00;2.00;;;;;23.09;49.36;101109.25;5005083;28;47149;-83
2022/08/02 03:10:22;;;;;;;;;2.25;2.25;;;;;23.10;49.12;101125.09;5023873;28;45807;-85
2022/08/02 03:12:48;;;;;;;;;2.00;2.00;;;;;23.01;49.23;101096.75;5007695;28;45614;-84
2022/08/02 03:15:14;;;;;;;;;3.00;3.00;;;;;22.92;49.48;101093.31;5007659;28;47404;-84
2022/08/02 03:17:44;;;;;;;;;2.00;2.00;;;;;23.04;49.75;101108.94;5025636;28;45523;-84
2022/08/02 03:20:15;;;;;;;;;3.00;3.00;;;;;23.00;49.60;101114.63;5007533;28;45726;-82
2022/08/02 03:22:42;;;;;;;;;2.00;2.00;;;;;22.97;50.25;101120.34;5023323;28;45669;-84
2022/08/02 03:25:08;;;;;;;;;2.75;2.75;;;;;22.87;50.18;101102.88;5023244;28;45532;-83
2022/08/02 03:27:34;;;;;;;;;3.25;3.25;;;;;22.86;50.06;101106.53;5020845;28;46296;-85
2022/08/02 03:29:59;;;;;;;;;2.00;2.00;;;;;22.85;50.06;101115.56;5017565;28;45557;-83
2022/08/02 03:32:25;;;;;;;;;3.75;3.50;;;;;22.81;50.46;101108.91;5015022;28;45762;-82
2022/08/02 03:34:51;;;;;;;;;3.00;3.00;;;;;22.81;50.58;101114.25;4997011;28;47608;-84
2022/08/02 03:40:40;;;;;;;;;2.25;2.00;;;;;22.77;50.34;101116.47;5014404;28;45603;-83
2022/08/02 03:43:08;;;;;;;;;1.50;1.50;;;;;22.70;50.80;101106.59;5015217;28;45928;-83
2022/08/02 03:45:37;;;;;;;;;3.00;3.00;;;;;22.66;50.52;101103.47;4997439;28;47621;-83
2022/08/02 03:48:04;;;;;;;;;2.00;2.00;;;;;22.60;50.73;101099.66;5000069;28;48422;-82
2022/08/02 03:50:32;;;;;;;;;2.50;1.50;;;;;22.63;50.57;101106.47;5019003;28;45643;-84
2022/08/02 03:52:58;;;;;;;;;3.75;3.25;;;;;22.52;50.86;101086.31;5017978;28;45774;-82
2022/08/02 03:55:23;;;;;;;;;3.50;3.50;;;;;22.65;50.76;101106.31;4999811;28;47625;-83
2022/08/02 03:57:49;;;;;;;;;2.25;2.25;;;;;22.46;51.00;101072.81;4999869;28;47009;-83
2022/08/02 04:00:20;;;;;;;;;2.00;2.00;;;;;22.53;51.11;101085.31;5017936;28;45526;-83
2022/08/02 04:02:47;;;;;;;;;2.75;2.75;;;;;22.55;50.94;101094.00;5017817;28;45749;-83
2022/08/02 04:05:12;;;;;;;;;3.00;3.00;;;;;22.46;50.91;101079.00;5017957;28;46067;-82
2022/08/02 04:13:44;;;;;;;;;3.00;3.00;;;;;22.47;50.69;101091.34;5017038;28;45933;-82
2022/08/02 04:16:14;;;;;;;;;2.75;2.75;;;;;22.48;50.88;101086.84;4999071;28;47391;-84
2022/08/02 04:18:48;;;;;;;;;2.25;2.25;;;;;22.49;51.07;101099.22;4999136;28;46874;-84
2022/08/02 04:21:18;;;;;;;;;2.25;2.00;;;;;22.44;50.88;101088.22;5017337;28;45637;-83
2022/08/02 04:23:46;;;;;;;;;2.00;2.00;;;;;22.39;51.53;101083.41;5017314;28;45958;-83
2022/08/02 04:26:12;;;;;;;;;2.75;2.25;;;;;22.42;50.92;101084.88;4999466;28;47863;-84
2022/08/02 04:28:39;;;;;;;;;4.00;3.00;;;;;22.41;50.87;101081.38;5017772;28;46121;-83
2022/08/02 04:31:05;;;;;;;;;3.00;3.00;;;;;22.38;51.29;101080.91;4999329;28;45608;-84
2022/08/02 04:33:31;;;;;;;;;4.25;3.00;;;;;22.44;50.96;101097.06;4999554;28;45682;-84
2022/08/02 04:35:57;;;;;;;;;2.00;2.00;;;;;22.39;50.96;101087.91;4998410;28;46772;-84
2022/08/02 04:38:23;;;;;;;;;3.00;3.00;;;;;22.42;51.29;101101.72;4998923;28;45937;-84
2022/08/02 04:40:54;;;;;;;;;3.00;2.00;;;;;22.43;50.96;101095.38;5016668;28;45839;-84
2022/08/02 04:43:20;;;;;;;;;3.00;2.50;;;;;22.39;51.28;101095.91;5016514;28;45494;-84
2022/08/02 04:45:48;;;;;;;;;5.25;4.00;;;;;22.40;51.72;101108.28;5016148;28;46891;-84
2022/08/02 04:48:13;;;;;;;;;3.00;2.00;;;;;22.36;51.34;101101.59;5016010;28;46145;-84
2022/08/02 04:50:39;;;;;;;;;3.50;3.00;;;;;22.26;51.52;101104.47;5017906;28;45784;-84
2022/08/02 04:56:26;;;;;;;;;4.00;3.50;;;;;22.30;51.88;101092.44;5018482;28;46044;-82
2022/08/02 04:58:51;;;;;;;;;3.75;3.00;;;;;22.34;51.92;101098.28;5018158;28;46441;-83
2022/08/02 05:01:17;;;;;;;;;4.00;2.25;;;;;22.35;51.60;101106.09;4998856;28;45602;-84
2022/08/02 05:03:42;;;;;;;;;4.00;3.25;;;;;22.36;51.58;101110.44;5016334;28;45682;-83
2022/08/02 05:06:08;;;;;;;;;3.25;3.00;;;;;22.36;51.67;101101.59;4998115;28;48630;-83
2022/08/02 05:08:33;;;;;;;;;3.00;2.50;;;;;22.29;51.48;101087.28;4997866;28;47775;-83
2022/08/02 05:10:58;;;;;;;;;3.00;3.00;;;;;22.25;51.98;101085.94;5016189;28;45626;-83
2022/08/02 05:13:24;;;;;;;;;3.75;3.00;;;;;22.21;52.48;101090.81;4997780;28;45635;-84
2022/08/02 05:15:49;;;;;;;;;4.00;4.00;;;;;22.19;52.58;101095.47;5015632;28;45709;-83
2022/08/02 05:18:15;;;;;;;;;4.75;4.25;;;;;22.19;52.62;101100.81;5015741;28;45636;-83
2022/08/02 05:20:40;;;;;;;;;4.50;4.00;;;;;22.07;52.37;101091.53;5015587;28;45691;-83
2022/08/02 05:26:28;;;;;;;;;3.75;3.75;;;;;21.97;52.95;101091.72;5015635;28;46069;-84
2022/08/02 05:28:53;;;;;;;;;5.00;4.25;;;;;22.09;52.94;101105.53;5015826;28;46089;-83
2022/08/02 05:31:19;;;;;;;;;3.00;3.00;;;;;22.05;52.95;101101.53;4997611;28;45693;-84
2022/08/02 05:33:44;;;;;;;;;4.50;4.00;;;;;22.00;52.94;101104.72;4997597;28;46006;-84
2022/08/02 05:42:34;;;;;;;;;4.00;3.25;;;;;21.99;53.04;101112.91;5015095;28;45569;-84
2022/08/02 05:45:00;;;;;;;;;5.25;4.00;;;;;22.03;53.17;101124.88;5015702;28;45615;-83
2022/08/02 05:47:26;;;;;;;;;4.00;4.00;;;;;22.00;53.20;101114.56;4997229;28;46658;-83
2022/08/02 05:49:51;;;;;;;;;3.75;3.75;;;;;22.03;52.98;101124.88;4997173;28;48003;-84
2022/08/02 05:52:18;;;;;;;;;4.00;4.00;;;;;22.03;53.16;101120.38;5016055;28;45679;-84
2022/08/02 05:55:07;;;;;;;;;4.00;3.75;;;;;22.05;53.08;101117.56;5015855;28;45726;-84
2022/08/02 05:57:47;;;;;;;;;5.50;3.00;;;;;22.02;53.43;101108.06;5015505;28;46734;-84
2022/08/02 06:00:14;;;;;;;;;2.25;2.25;;;;;22.01;53.06;101108.22;5015558;28;46237;-84
2022/08/02 06:02:42;;;;;;;;;4.00;3.00;;;;;22.04;53.48;101118.56;5015248;28;45833;-83
2022/08/02 06:05:19;;;;;;;;;3.00;3.00;;;;;22.00;53.56;101119.91;5014703;28;45654;-80
2022/08/02 06:07:46;;;;;;;;;5.00;5.00;;;;;21.94;53.83;101110.75;5014530;28;46372;-79
2022/08/02 06:10:13;;;;;;;;;5.00;4.50;;;;;21.99;53.45;101123.56;5014492;28;45945;-79
2022/08/02 06:12:49;;;;;;;;;3.75;3.75;;;;;21.99;53.53;101120.91;5015010;28;45656;-78
2022/08/02 06:15:17;;;;;;;;;5.00;4.00;;;;;21.99;53.19;101110.22;4997081;28;45949;-79
2022/08/02 06:17:44;;;;;;;;;3.00;3.00;;;;;22.04;53.53;101105.19;5014977;28;45643;-80
2022/08/02 06:20:12;;;;;;;;;5.00;4.00;;;;;22.07;53.14;101103.03;5014736;28;45753;-83
2022/08/02 06:22:41;;;;;;;;;4.75;3.00;;;;;22.12;53.56;101111.38;5017998;28;45587;-78
2022/08/02 06:25:07;;;;;;;;;5.75;5.00;;;;;22.11;53.14;101096.34;5019423;28;45588;-81
2022/08/02 06:27:33;;;;;;;;;4.00;3.75;;;;;22.25;52.87;101118.81;5019878;28;45536;-83
2022/08/02 06:30:00;;;;;;;;;4.25;3.25;;;;;22.29;52.96;101127.34;5018584;28;45592;-81
2022/08/02 06:32:26;;;;;;;;;6.75;5.25;;;;;22.27;52.81;101107.97;5018437;28;45621;-79
2022/08/02 06:34:51;;;;;;;;;4.25;3.50;;;;;22.34;52.83;101117.81;5022656;28;45539;-81
2022/08/02 06:37:23;;;;;;;;;4.50;4.25;;;;;22.40;52.54;101118.94;5025507;28;46670;-79
2022/08/02 06:39:53;;;;;;;;;6.75;4.50;;;;;22.36;52.35;101114.94;5008400;28;47874;-80
2022/08/02 06:42:29;;;;;;;;;4.00;4.00;;;;;22.47;52.19;101127.91;5025988;28;44995;-83
2022/08/02 06:44:54;;;;;;;;;5.50;5.00;;;;;22.46;52.65;101124.41;4988500;28;45552;-81
2022/08/02 06:47:20;;;;;;;;;4.75;4.00;;;;;22.47;52.01;101123.41;5020963;28;45667;-84
2022/08/02 06:49:45;;;;;;;;;5.50;4.00;;;;;22.45;51.92;101108.56;5000512;28;46124;-85
2022/08/02 06:52:11;;;;;;;;;4.00;4.00;;;;;22.55;51.94;101131.41;5017490;28;45507;-84
2022/08/02 06:54:37;;;;;;;;;7.00;5.00;;;;;22.58;52.31;101138.22;4999831;28;45686;-82
2022/08/02 06:57:03;;;;;;;;;5.50;5.00;;;;;22.52;52.53;101126.38;5018782;28;46907;-79
2022/08/02 06:59:29;;;;;;;;;4.00;4.00;;;;;22.63;52.09;101137.69;5000450;28;47056;-80
2022/08/02 07:01:55;;;;;;;;;4.75;4.75;;;;;22.61;52.14;101129.88;5017691;28;45536;-80
2022/08/02 07:04:20;;;;;;;;;5.00;3.00;;;;;22.67;51.82;101141.69;4999793;28;45551;-82
2022/08/02 07:06:45;;;;;;;;;4.00;4.00;;;;;22.65;51.92;101136.53;5019455;28;46378;-81
2022/08/02 07:12:34;;;;;;;;;5.25;4.25;;;;;22.65;51.84;101143.69;5022348;28;45663;-80
2022/08/02 07:15:01;;;;;;;;;4.75;4.00;;;;;22.61;52.17;101135.22;5004748;28;45757;-78
2022/08/02 07:17:28;;;;;;;;;5.00;4.00;;;;;22.58;52.22;101140.88;5005356;28;45753;-82
2022/08/02 07:19:53;;;;;;;;;4.00;4.00;;;;;22.57;52.49;101133.88;5001381;28;45806;-80
2022/08/02 07:22:22;;;;;;;;;4.25;4.00;;;;;22.58;52.00;101139.06;5003870;28;45661;-84
2022/08/02 07:24:50;;;;;;;;;6.00;4.25;;;;;22.58;52.03;101124.84;5020959;28;45617;-80
2022/08/02 07:27:15;;;;;;;;;8.00;6.00;;;;;22.59;51.85;101131.88;5019849;28;46917;-82
2022/08/02 07:29:41;;;;;;;;;5.50;5.00;;;;;22.66;51.98;101132.00;5001666;28;46417;-81
2022/08/02 07:32:06;;;;;;;;;5.25;4.25;;;;;22.75;51.55;101155.88;5017227;28;45662;-84
2022/08/02 07:34:32;;;;;;;;;5.50;4.50;;;;;22.71;51.62;101148.34;5017057;28;45571;-88
2022/08/02 07:36:57;;;;;;;;;5.25;5.25;;;;;22.74;51.77;101146.19;5017060;28;46633;-85
2022/08/02 07:42:46;;;;;;;;;5.00;5.00;;;;;22.84;51.62;101144.13;5017076;28;46801;-80
2022/08/02 07:45:12;;;;;;;;;6.50;5.25;;;;;22.95;51.77;101151.75;5017353;28;45528;-86
2022/08/02 07:47:42;;;;;;;;;5.75;5.00;;;;;23.01;51.75;101152.88;5017552;28;46786;-85
2022/08/02 07:50:10;;;;;;;;;5.25;5.00;;;;;23.01;51.73;101151.03;5017007;28;45528;-78
2022/08/02 07:52:36;;;;;;;;;4.75;4.00;;;;;23.04;51.06;101146.38;5000168;28;45622;-82
2022/08/02 07:55:02;;;;;;;;;8.75;6.00;;;;;23.13;50.86;101147.97;4999243;28;45563;-83
2022/08/02 07:57:28;;;;;;;;;6.00;5.75;;;;;23.15;51.55;101144.13;5017539;28;46642;-81
2022/08/02 07:59:53;;;;;;;;;5.00;4.25;;;;;23.18;50.74;101141.06;5018095;28;45738;-85
2022/08/02 08:02:18;;;;;;;;;5.25;5.00;;;;;23.25;50.86;101143.88;5018183;28;45790;-81
2022/08/02 08:04:44;;;;;;;;;5.00;5.00;;;;;23.30;51.14;101147.69;5019147;28;45528;-87
2022/08/02 08:07:10;;;;;;;;;6.00;5.50;;;;;23.25;50.79;101139.38;4998851;28;48250;-81
2022/08/02 08:12:57;;;;;;;;;5.75;5.75;;;;;23.33;50.77;101150.00;5019003;28;45607;-80
2022/08/02 08:15:23;;;;;;;;;5.75;5.50;;;;;23.34;50.85;101137.44;5018340;28;45539;-80
2022/08/02 08:17:49;;;;;;;;;6.75;4.50;;;;;23.36;50.42;101136.28;5019040;28;45923;-81
2022/08/02 08:20:14;;;;;;;;;6.00;5.00;;;;;23.36;50.69;101130.09;4999413;28;46325;-85
2022/08/02 08:22:39;;;;;;;;;4.00;4.00;;;;;23.44;50.49;101152.25;5015764;28;45598;-83
2022/08/02 08:25:05;;;;;;;;;5.25;5.00;;;;;23.35;50.67;101126.59;5016238;28;45707;-81
2022/08/02 08:27:30;;;;;;;;;6.25;6.25;;;;;23.46;50.32;101138.72;5000235;28;48342;-81
2022/08/02 08:29:57;;;;;;;;;10.75;8.00;;;;;23.50;50.25;101133.84;5003091;28;47346;-82
2022/08/02 08:32:25;;;;;;;;;7.00;6.75;;;;;23.59;50.18;101155.00;5024875;28;45517;-83
2022/08/02 08:34:51;;;;;;;;;5.75;5.00;;;;;23.64;50.42;101149.13;5025150;28;45647;-80
2022/08/02 08:37:17;;;;;;;;;4.25;4.25;;;;;23.66;49.82;101139.88;5024985;28;45650;-80
2022/08/02 08:43:06;;;;;;;;;7.00;5.00;;;;;23.76;50.14;101132.44;5020490;28;45496;-83
2022/08/02 08:45:31;;;;;;;;;6.00;6.00;;;;;23.79;49.52;101129.41;5001664;28;45829;-85
2022/08/02 08:48:05;;;;;;;;;7.25;5.25;;;;;23.77;49.52;101118.03;5019017;28;45947;-81
2022/08/02 08:50:34;;;;;;;;;5.25;4.50;;;;;23.82;49.50;101126.34;5020701;28;45574;-87
2022/08/02 08:53:06;;;;;;;;;6.00;5.50;;;;;23.96;49.69;101138.09;5005151;28;45607;-87
2022/08/02 08:55:34;;;;;;;;;7.25;6.75;;;;;23.92;49.71;101125.25;5004593;28;45650;-88
2022/08/02 08:58:01;;;;;;;;;6.75;5.00;;;;;23.99;49.67;101128.88;5021037;28;46629;-85
2022/08/02 09:00:29;;;;;;;;;5.50;5.25;;;;;24.04;49.52;101131.81;5021809;28;45859;-78
2022/08/02 09:02:55;;;;;;;;;7.00;6.00;;;;;24.09;49.13;101137.44;5007192;28;45574;-86
2022/08/02 09:05:21;;;;;;;;;7.25;5.75;;;;;24.10;49.23;101123.88;5023380;28;45689;-83
2022/08/02 09:07:48;;;;;;;;;5.75;5.75;;;;;24.17;49.51;101130.22;5005665;28;47282;-83
2022/08/02 09:13:35;;;;;;;;;6.00;4.00;;;;;24.31;48.71;101131.22;5027607;28;45624;-81
2022/08/02 09:16:03;;;;;;;;;7.00;5.50;;;;;24.38;48.48;101133.97;5027643;28;45468;-87
2022/08/02 09:18:33;;;;;;;;;4.50;4.00;;;;;24.34;48.58;101116.63;5025625;28;45757;-82
2022/08/02 09:21:04;;;;;;;;;6.75;5.75;;;;;24.43;48.48;101120.84;5024003;28;45472;-82
2022/08/02 09:23:34;;;;;;;;;5.00;5.00;;;;;24.50;48.49;101122.63;5023719;28;45646;-86
2022/08/02 09:26:09;;;;;;;;;4.50;4.50;;;;;24.47;48.22;101114.09;5024596;28;45756;-83
2022/08/02 09:28:37;;;;;;;;;4.00;4.00;;;;;24.55;48.15;101117.53;5026623;28;46672;-85
2022/08/02 09:31:13;;;;;;;;;6.00;6.00;;;;;24.58;48.10;101121.66;5026071;28;45561;-85
2022/08/02 09:33:40;;;;;;;;;5.00;5.00;;;;;24.65;48.11;101119.91;5023464;28;45644;-84
2022/08/02 09:36:07;;;;;;;;;6.25;6.00;;;;;24.60;48.13;101101.72;5021135;28;45738;-83
2022/08/02 09:38:35;;;;;;;;;5.50;4.75;;;;;24.71;47.73;101113.78;5007031;28;47926;-82
2022/08/02 09:41:01;;;;;;;;;5.75;4.75;;;;;24.76;48.05;101107.84;5010347;28;45728;-80
2022/08/02 09:43:34;;;;;;;;;5.25;4.25;;;;;24.74;47.42;101096.47;5004902;28;45609;-78
2022/08/02 09:46:09;;;;;;;;;5.00;4.50;;;;;24.84;47.69;101110.41;5025736;28;45919;-81
2022/08/02 09:48:48;;;;;;;;;5.00;4.25;;;;;24.91;47.67;101106.81;5021123;28;45654;-79
2022/08/02 09:51:21;;;;;;;;;5.00;5.00;;;;;24.86;47.23;101095.81;5019799;28;46506;-82
2022/08/02 09:53:48;;;;;;;;;5.25;5.00;;;;;24.95;47.10;101094.69;5020275;28;45693;-82
2022/08/02 09:56:15;;;;;;;;;5.00;5.00;;;;;25.04;47.65;101101.59;5019576;28;45608;-79
2022/08/02 09:58:41;;;;;;;;;6.75;4.50;;;;;25.04;47.23;101090.88;5021641;28;45646;-78
2022/08/02 10:01:08;;;;;;;;;6.00;6.00;;;;;25.14;47.09;101101.28;5018656;28;45629;-79
2022/08/02 10:03:33;;;;;;;;;6.00;6.00;;;;;25.10;47.16;101085.78;5023815;28;45630;-79
2022/08/02 10:06:00;;;;;;;;;3.00;3.00;;;;;25.21;46.95;101094.09;5025768;28;45503;-78
2022/08/02 10:08:27;;;;;;;;;6.00;5.00;;;;;25.23;46.85;101091.25;5026266;28;45697;-79
2022/08/02 10:10:59;;;;;;;;;4.00;4.00;;;;;25.25;46.69;101082.00;5025418;28;46568;-79
2022/08/02 10:13:35;;;;;;;;;4.25;4.25;;;;;25.35;47.03;101097.75;4981058;28;1260258;-79
2022/08/02 10:16:02;;;;;;;;;5.00;5.00;;;;;25.37;46.73;101085.00;5028001;28;45446;-81
2022/08/02 10:18:28;;;;;;;;;4.75;4.75;;;;;25.51;46.45;101092.09;5009533;28;45873;-78
2022/08/02 10:20:55;;;;;;;;;3.50;3.00;;;;;25.58;46.51;101086.84;5027583;28;46150;-78
2022/08/02 10:23:24;;;;;;;;;3.00;3.00;;;;;25.64;46.70;101086.84;5027560;28;45752;-80
2022/08/02 10:29:16;;;;;;;;;4.00;4.00;;;;;25.77;46.32;101092.34;5028765;28;45536;-77
2022/08/02 10:32:03;;;;;;;;;4.00;3.00;;;;;25.87;46.28;101086.59;5011000;28;45761;-82
2022/08/02 10:34:36;;;;;;;;;3.00;3.00;;;;;25.88;46.03;101081.03;5029204;28;45667;-79
2022/08/02 10:37:05;;;;;;;;;5.00;5.00;;;;;25.98;45.63;101090.59;5028479;28;45576;-78
2022/08/02 10:39:40;;;;;;;;;7.00;4.25;;;;;26.04;45.46;101081.75;5029628;28;45673;-80
2022/08/02 10:42:07;;;;;;;;;5.25;5.00;;;;;26.04;45.16;101079.91;5028886;28;46525;-81
2022/08/02 10:44:33;;;;;;;;;3.75;3.75;;;;;26.16;45.23;101078.31;5027616;28;45572;-82
2022/08/02 10:47:18;;;;;;;;;5.25;4.00;;;;;26.23;44.31;101086.44;5028829;28;45409;-82
2022/08/02 10:49:50;;;;;;;;;3.00;3.00;;;;;26.25;44.10;101076.31;5029365;28;47000;-86
2022/08/02 10:52:16;;;;;;;;;4.25;4.00;;;;;26.29;43.91;101082.94;5033791;28;45569;-79
2022/08/02 10:54:47;;;;;;;;;3.00;3.00;;;;;26.30;43.48;101073.84;5038702;28;45482;-85
2022/08/02 10:57:25;;;;;;;;;3.50;3.00;;;;;26.37;43.00;101082.78;5022824;28;45703;-85
2022/08/02 10:59:56;;;;;;;;;2.75;2.50;;;;;26.43;42.68;101079.28;5024575;28;45625;-93
2022/08/02 11:02:45;;;;;;;;;5.00;4.00;;;;;26.52;42.93;101075.38;5022373;28;47331;-84
2022/08/02 11:05:32;;;;;;;;;3.25;3.25;;;;;26.62;43.05;101072.31;5039236;28;45212;-93
2022/08/02 11:08:00;;;;;;;;;3.25;3.25;;;;;26.69;43.01;101067.78;5037002;28;45380;-94
2022/08/02 11:10:33;;;;;;;;;3.75;3.25;;;;;26.75;42.91;101066.97;5037770;28;45581;-85
2022/08/02 11:13:01;;;;;;;;;4.75;4.00;;;;;26.82;42.70;101070.50;5020349;28;47432;-89
2022/08/02 11:15:27;;;;;;;;;3.25;2.50;;;;;26.80;41.93;101053.75;5038478;28;45098;-89
2022/08/02 11:17:54;;;;;;;;;3.50;3.00;;;;;26.90;41.97;101058.75;5030899;28;45236;-81
2022/08/02 11:20:22;;;;;;;;;2.75;2.75;;;;;26.97;41.31;101064.97;5028112;28;45557;-85
2022/08/02 11:22:50;;;;;;;;;2.75;2.25;;;;;26.98;40.31;101056.72;5029093;28;45829;-87
2022/08/02 11:25:21;;;;;;;;;3.25;3.00;;;;;27.10;40.56;101070.34;5030244;28;45327;-80
2022/08/02 11:27:58;;;;;;;;;2.00;2.00;;;;;27.06;40.82;101056.50;5031344;28;45436;-90
2022/08/02 11:30:24;;;;;;;;;2.75;2.00;;;;;27.20;40.68;101053.84;5013906;28;47389;-91
2022/08/02 11:32:57;;;;;;;;;2.25;2.25;;;;;27.26;40.77;101055.69;5032625;28;45511;-91
2022/08/02 11:35:30;;;;;;;;;3.00;3.00;;;;;27.32;40.36;101054.84;5030654;28;45477;-91
2022/08/02 11:37:57;;;;;;;;;3.00;3.00;;;;;27.39;39.98;101051.13;5029371;28;45229;-90
2022/08/02 11:40:23;;;;;;;;;2.50;2.00;;;;;27.34;39.70;101034.78;5028457;28;46529;-82
2022/08/02 11:42:52;;;;;;;;;2.25;2.25;;;;;27.43;39.79;101043.44;5025977;28;45468;-87
2022/08/02 11:45:24;;;;;;;;;2.75;2.00;;;;;27.51;40.04;101037.91;5025097;28;45620;-89
2022/08/02 11:47:54;;;;;;;;;2.00;2.00;;;;;27.60;39.67;101036.63;5024128;28;45511;-81
2022/08/02 11:50:24;;;;;;;;;2.50;2.50;;;;;27.62;39.51;101036.44;5023470;28;46902;-88
2022/08/02 11:52:52;;;;;;;;;2.00;2.00;;;;;27.74;39.05;101042.84;5024204;28;46253;-83
2022/08/02 11:55:28;;;;;;;;;2.25;2.25;;;;;27.83;39.01;101044.25;5023158;28;45596;-85
2022/08/02 11:58:03;;;;;;;;;2.50;2.50;;;;;27.88;38.37;101047.97;5023129;28;45752;-80
2022/08/02 12:00:29;;;;;;;;;2.50;2.00;;;;;27.92;38.70;101042.97;5025066;28;46614;-88
2022/08/02 12:02:54;;;;;;;;;2.00;2.00;;;;;27.94;38.30;101038.22;5024165;28;45707;-82
2022/08/02 12:05:22;;;;;;;;;2.00;2.00;;;;;27.96;38.15;101030.75;5025022;28;45564;-85
2022/08/02 12:07:50;;;;;;;;;1.00;1.00;;;;;28.09;38.41;101048.72;5026096;28;45503;-84
2022/08/02 12:10:20;;;;;;;;;2.50;2.50;;;;;28.09;38.19;101032.56;5027385;28;46684;-86
2022/08/02 12:12:57;;;;;;;;;2.00;2.00;;;;;28.10;38.02;101026.97;5028172;28;45856;-83
2022/08/02 12:15:31;;;;;;;;;3.00;2.75;;;;;28.17;37.95;101026.97;5012058;28;45283;-83
2022/08/02 12:20:42;;;;;;;;;3.00;3.00;;;;;28.20;37.96;101040.00;5026959;28;45564;-80
2022/08/02 12:23:07;;;;;;;;;3.00;2.75;;;;;28.26;37.88;101029.22;5010127;28;47062;-82
2022/08/02 12:25:33;;;;;;;;;3.00;3.00;;;;;28.25;38.24;101018.63;5026901;28;45263;-80
2022/08/02 12:28:21;;;;;;;;;2.00;2.00;;;;;28.37;37.38;101025.00;5004759;28;45599;-84